Accueil
METAR-TAF:

METAR-TAF

Aéroports :

Paris, France

Aéroport de Paris-Le Bourget

latitude: 48-58N, longitude: 002-27E, altitude: 66 m

Observation

Le bulletin a été fait il y a 37 minutes, à 10:00 UTC
Vent 10 kt de nord-est, variant entre nord et est/nord-est
Température 1°C
Humidité 75%
Pression 1020 hPa
Visibilité: 7000 m
Quelques nuages à une hauteur de 1900 ft

METAR: LFPB 221000Z AUTO 04010KT 360V060 7000 FEW019 01/M03 Q1020 TEMPO 4500 HZ

Heure: 11:37 (10:37 UTC)

Prévision

Le bulletin a été fait il y a 3 heures et 16 minutes, à 07:21 UTC
Prévision valable du 22 à 07 UTC au 23 à 06 UTC
Vent 12 kt de nord/nord-est
Visibilité: 5000 m
brume
Temporairement
du 22 à 07 UTC au 22 à 10 UTC
Visibilité: 3000 m
brume
Temporairement
du 22 à 10 UTC au 22 à 18 UTC
Visibilité: 4500 m
brume sèche

TAF: LFPB 220721Z 2207/2306 03012KT 5000 BR NSC TEMPO 2207/2210 3000 BR TEMPO 2210/2218 4500 HZ TX04/2215Z TNM03/2306Z

Observations et prévisions météorologiques de plus de 4000 aéroports (messages METAR et TAF).

Les stations disponibles sont représentées par des disques jaunes et rouges sur la carte.

Passer la souris dessus pour voir le nom de la station.

Cliquer dessus pour voir les observations et prévisions météorologiques.

Pour changer de carte: cliquez sur les boutons verts avec une croix noire pour zoomer, sur le bouton vert avec un tiret pour effectuer un zoom arrière, ou sur les flèches vertes pour les cartes adjacentes.


METAR-TAF: